sensor_id;sensor_type;location;lat;lon;timestamp;pressure;altitude;pressure_sealevel;temperature;humidity
59531;BME280;45349;48.692;8.186;2023-09-07T00:01:48;150336.25;;;17.01;74.04
59531;BME280;45349;48.692;8.186;2023-09-07T00:04:19;150313.75;;;16.91;75.88
59531;BME280;45349;48.692;8.186;2023-09-07T00:06:48;150321.25;;;16.94;78.12
59531;BME280;45349;48.692;8.186;2023-09-07T00:09:15;150283.75;;;16.79;78.55
59531;BME280;45349;48.692;8.186;2023-09-07T00:11:43;150322.47;;;16.95;76.79
59531;BME280;45349;48.692;8.186;2023-09-07T00:14:10;150319.97;;;16.94;76.74
59531;BME280;45349;48.692;8.186;2023-09-07T00:16:37;150286.25;;;16.80;76.95
59531;BME280;45349;48.692;8.186;2023-09-07T00:19:05;150303.75;;;16.87;79.81
59531;BME280;45349;48.692;8.186;2023-09-07T00:21:33;150296.25;;;16.84;76.44
59531;BME280;45349;48.692;8.186;2023-09-07T00:24:06;150367.56;;;17.14;72.94
59531;BME280;45349;48.692;8.186;2023-09-07T00:26:32;150421.31;;;17.36;71.73
59531;BME280;45349;48.692;8.186;2023-09-07T00:29:02;150505.09;;;17.70;68.68
59531;BME280;45349;48.692;8.186;2023-09-07T00:31:29;150600.25;;;18.10;65.63
59531;BME280;45349;48.692;8.186;2023-09-07T00:33:55;150548.91;;;17.89;67.92
59531;BME280;45349;48.692;8.186;2023-09-07T00:36:22;150626.50;;;18.21;68.49
59531;BME280;45349;48.692;8.186;2023-09-07T00:38:50;150631.50;;;18.23;66.94
59531;BME280;45349;48.692;8.186;2023-09-07T00:41:16;150575.22;;;17.99;66.25
59531;BME280;45349;48.692;8.186;2023-09-07T00:43:43;150532.63;;;17.82;70.12
59531;BME280;45349;48.692;8.186;2023-09-07T00:46:10;150511.38;;;17.73;69.69
59531;BME280;45349;48.692;8.186;2023-09-07T00:48:37;150470.06;;;17.56;71.92
59531;BME280;45349;48.692;8.186;2023-09-07T00:51:04;150430.09;;;17.39;73.71
59531;BME280;45349;48.692;8.186;2023-09-07T00:53:31;150391.28;;;17.23;74.89
59531;BME280;45349;48.692;8.186;2023-09-07T00:56:01;150357.53;;;17.09;74.80
59531;BME280;45349;48.692;8.186;2023-09-07T00:58:28;150326.25;;;16.96;76.12
59531;BME280;45349;48.692;8.186;2023-09-07T01:00:55;150303.75;;;16.87;77.34
59531;BME280;45349;48.692;8.186;2023-09-07T01:03:21;150268.75;;;16.73;79.44
59531;BME280;45349;48.692;8.186;2023-09-07T01:05:53;150273.75;;;16.75;79.96
59531;BME280;45349;48.692;8.186;2023-09-07T01:08:24;150296.25;;;16.84;77.85
59531;BME280;45349;48.692;8.186;2023-09-07T01:10:52;150292.47;;;16.82;78.73
59531;BME280;45349;48.692;8.186;2023-09-07T01:13:20;150271.22;;;16.74;78.74
59531;BME280;45349;48.692;8.186;2023-09-07T01:15:48;150249.97;;;16.65;78.46
59531;BME280;45349;48.692;8.186;2023-09-07T01:18:15;150241.22;;;16.61;80.06
59531;BME280;45349;48.692;8.186;2023-09-07T01:20:44;150219.94;;;16.52;80.85
59531;BME280;45349;48.692;8.186;2023-09-07T01:23:13;150191.22;;;16.41;80.82
59531;BME280;45349;48.692;8.186;2023-09-07T01:25:40;150175.00;;;16.34;80.74
59531;BME280;45349;48.692;8.186;2023-09-07T01:28:07;150148.72;;;16.23;80.67
59531;BME280;45349;48.692;8.186;2023-09-07T01:30:35;150130.00;;;16.15;81.81
59531;BME280;45349;48.692;8.186;2023-09-07T01:33:02;150126.22;;;16.14;82.68
59531;BME280;45349;48.692;8.186;2023-09-07T01:35:30;150113.72;;;16.08;83.73
59531;BME280;45349;48.692;8.186;2023-09-07T01:37:58;150103.72;;;16.04;83.57
59531;BME280;45349;48.692;8.186;2023-09-07T01:40:26;150086.22;;;15.97;83.27
59531;BME280;45349;48.692;8.186;2023-09-07T01:42:52;150105.00;;;16.05;83.77
59531;BME280;45349;48.692;8.186;2023-09-07T01:45:19;150105.00;;;16.05;83.11
59531;BME280;45349;48.692;8.186;2023-09-07T01:47:45;150090.00;;;15.99;83.37
59531;BME280;45349;48.692;8.186;2023-09-07T01:50:12;150082.50;;;15.96;84.87
59531;BME280;45349;48.692;8.186;2023-09-07T01:52:40;150076.22;;;15.93;85.57
59531;BME280;45349;48.692;8.186;2023-09-07T01:55:07;150071.22;;;15.91;87.15
59531;BME280;45349;48.692;8.186;2023-09-07T01:57:35;150138.72;;;16.19;83.17
59531;BME280;45349;48.692;8.186;2023-09-07T02:00:02;150145.00;;;16.21;84.19
59531;BME280;45349;48.692;8.186;2023-09-07T02:02:38;150116.22;;;16.09;85.55
59531;BME280;45349;48.692;8.186;2023-09-07T02:05:05;150135.00;;;16.17;83.41
59531;BME280;45349;48.692;8.186;2023-09-07T02:07:33;150136.22;;;16.18;83.18
59531;BME280;45349;48.692;8.186;2023-09-07T02:09:59;150123.72;;;16.13;85.87
59531;BME280;45349;48.692;8.186;2023-09-07T02:12:26;150118.72;;;16.11;86.72
59531;BME280;45349;48.692;8.186;2023-09-07T02:14:55;150077.50;;;15.93;87.41
59531;BME280;45349;48.692;8.186;2023-09-07T02:17:21;150044.97;;;15.80;87.15
59531;BME280;45349;48.692;8.186;2023-09-07T02:19:48;150033.72;;;15.75;87.60
59531;BME280;45349;48.692;8.186;2023-09-07T02:22:15;150029.97;;;15.74;87.25
59531;BME280;45349;48.692;8.186;2023-09-07T02:24:42;150067.50;;;15.89;88.03
59531;BME280;45349;48.692;8.186;2023-09-07T02:27:08;150043.72;;;15.79;87.74
59531;BME280;45349;48.692;8.186;2023-09-07T02:29:35;150029.97;;;15.74;88.37
59531;BME280;45349;48.692;8.186;2023-09-07T02:32:04;150027.47;;;15.73;88.55
59531;BME280;45349;48.692;8.186;2023-09-07T02:34:31;150046.22;;;15.81;89.22
59531;BME280;45349;48.692;8.186;2023-09-07T02:37:02;150059.94;;;15.86;89.32
59531;BME280;45349;48.692;8.186;2023-09-07T02:39:29;150126.22;;;16.14;86.15
59531;BME280;45349;48.692;8.186;2023-09-07T02:41:55;150170.00;;;16.32;84.29
59531;BME280;45349;48.692;8.186;2023-09-07T02:44:22;150191.22;;;16.41;84.10
59531;BME280;45349;48.692;8.186;2023-09-07T02:46:49;150257.47;;;16.68;82.15
59531;BME280;45349;48.692;8.186;2023-09-07T02:49:17;150207.44;;;16.47;84.89
59531;BME280;45349;48.692;8.186;2023-09-07T02:51:43;150187.50;;;16.39;85.30
59531;BME280;45349;48.692;8.186;2023-09-07T02:54:10;150181.22;;;16.36;86.25
59531;BME280;45349;48.692;8.186;2023-09-07T02:56:37;150165.00;;;16.30;87.73
59531;BME280;45349;48.692;8.186;2023-09-07T02:59:05;150153.72;;;16.25;87.37
59531;BME280;45349;48.692;8.186;2023-09-07T03:01:32;150141.22;;;16.20;87.99
59531;BME280;45349;48.692;8.186;2023-09-07T03:04:05;150135.00;;;16.17;89.55
59531;BME280;45349;48.692;8.186;2023-09-07T03:06:34;150142.50;;;16.20;90.18
59531;BME280;45349;48.692;8.186;2023-09-07T03:09:05;150145.00;;;16.21;90.25
59531;BME280;45349;48.692;8.186;2023-09-07T03:11:36;150185.00;;;16.38;86.50
59531;BME280;45349;48.692;8.186;2023-09-07T03:14:06;150207.44;;;16.47;86.53
59531;BME280;45349;48.692;8.186;2023-09-07T03:16:33;150253.72;;;16.66;84.69
59531;BME280;45349;48.692;8.186;2023-09-07T03:19:06;150471.34;;;17.56;78.16
59531;BME280;45349;48.692;8.186;2023-09-07T03:21:33;150602.75;;;18.11;75.42
59531;BME280;45349;48.692;8.186;2023-09-07T03:24:07;150622.78;;;18.19;74.18
59531;BME280;45349;48.692;8.186;2023-09-07T03:26:34;150650.31;;;18.31;73.55
59531;BME280;45349;48.692;8.186;2023-09-07T03:29:05;150690.34;;;18.47;74.23
59531;BME280;45349;48.692;8.186;2023-09-07T03:31:32;150660.31;;;18.35;74.40
59531;BME280;45349;48.692;8.186;2023-09-07T03:34:02;150671.56;;;18.39;74.21
59531;BME280;45349;48.692;8.186;2023-09-07T03:36:30;150750.38;;;18.72;71.45
59531;BME280;45349;48.692;8.186;2023-09-07T03:38:57;150696.59;;;18.50;73.76
59531;BME280;45349;48.692;8.186;2023-09-07T03:41:25;150682.84;;;18.44;74.66
59531;BME280;45349;48.692;8.186;2023-09-07T03:43:56;150685.34;;;18.45;75.34
59531;BME280;45349;48.692;8.186;2023-09-07T03:46:23;150671.56;;;18.39;75.69
59531;BME280;45349;48.692;8.186;2023-09-07T03:48:50;150651.53;;;18.31;76.22
59531;BME280;45349;48.692;8.186;2023-09-07T03:51:17;150686.56;;;18.46;75.64
59531;BME280;45349;48.692;8.186;2023-09-07T03:53:44;150714.13;;;18.57;74.72
59531;BME280;45349;48.692;8.186;2023-09-07T03:56:11;150731.63;;;18.64;73.83
59531;BME280;45349;48.692;8.186;2023-09-07T03:58:39;150786.72;;;18.87;73.44
59531;BME280;45349;48.692;8.186;2023-09-07T04:01:06;150759.19;;;18.76;74.10
59531;BME280;45349;48.692;8.186;2023-09-07T04:03:32;150864.34;;;19.19;71.68
59531;BME280;45349;48.692;8.186;2023-09-07T04:05:59;150970.78;;;19.63;69.61
59531;BME280;45349;48.692;8.186;2023-09-07T04:08:27;150936.97;;;19.49;70.19
59531;BME280;45349;48.692;8.186;2023-09-07T04:10:53;150964.53;;;19.60;69.34
59531;BME280;45349;48.692;8.186;2023-09-07T04:13:20;150942.00;;;19.51;70.17
59531;BME280;45349;48.692;8.186;2023-09-07T04:15:48;150988.31;;;19.70;69.21
59531;BME280;45349;48.692;8.186;2023-09-07T04:18:15;150988.31;;;19.70;69.63
59531;BME280;45349;48.692;8.186;2023-09-07T04:20:43;150994.59;;;19.73;69.68
59531;BME280;45349;48.692;8.186;2023-09-07T04:23:11;150958.28;;;19.58;70.45
59531;BME280;45349;48.692;8.186;2023-09-07T04:25:38;150957.03;;;19.57;70.42
59531;BME280;45349;48.692;8.186;2023-09-07T04:28:05;150977.06;;;19.66;70.64
59531;BME280;45349;48.692;8.186;2023-09-07T04:30:32;151044.75;;;19.94;69.70
59531;BME280;45349;48.692;8.186;2023-09-07T04:33:00;151017.13;;;19.82;69.98
59531;BME280;45349;48.692;8.186;2023-09-07T04:35:28;151048.47;;;19.95;69.53
59531;BME280;45349;48.692;8.186;2023-09-07T04:37:56;151044.75;;;19.94;69.66
59531;BME280;45349;48.692;8.186;2023-09-07T04:40:23;151018.38;;;19.83;70.56
59531;BME280;45349;48.692;8.186;2023-09-07T04:42:50;150940.75;;;19.51;72.41
59531;BME280;45349;48.692;8.186;2023-09-07T04:45:17;150843.09;;;19.10;73.73
59531;BME280;45349;48.692;8.186;2023-09-07T04:47:44;150757.91;;;18.75;76.20
59531;BME280;45349;48.692;8.186;2023-09-07T04:50:13;150622.78;;;18.19;78.89
59531;BME280;45349;48.692;8.186;2023-09-07T04:52:40;150513.88;;;17.74;80.68
59531;BME280;45349;48.692;8.186;2023-09-07T04:55:07;150461.34;;;17.52;81.77
59531;BME280;45349;48.692;8.186;2023-09-07T04:57:36;150373.78;;;17.16;82.82
59531;BME280;45349;48.692;8.186;2023-09-07T05:00:03;150350.03;;;17.06;83.06
59531;BME280;45349;48.692;8.186;2023-09-07T05:02:30;150316.25;;;16.92;83.82
59531;BME280;45349;48.692;8.186;2023-09-07T05:04:57;150282.47;;;16.78;85.09
59531;BME280;45349;48.692;8.186;2023-09-07T05:07:25;150234.94;;;16.59;87.39
59531;BME280;45349;48.692;8.186;2023-09-07T05:09:52;150213.72;;;16.50;87.43
59531;BME280;45349;48.692;8.186;2023-09-07T05:12:19;150188.72;;;16.40;88.41
59531;BME280;45349;48.692;8.186;2023-09-07T05:14:46;150163.72;;;16.29;89.92
59531;BME280;45349;48.692;8.186;2023-09-07T05:17:12;150136.22;;;16.18;91.52
59531;BME280;45349;48.692;8.186;2023-09-07T05:19:39;150112.50;;;16.08;91.91
59531;BME280;45349;48.692;8.186;2023-09-07T05:22:06;150108.72;;;16.06;92.91
59531;BME280;45349;48.692;8.186;2023-09-07T05:24:34;150095.00;;;16.01;92.71
59531;BME280;45349;48.692;8.186;2023-09-07T05:27:00;150081.22;;;15.95;93.31
59531;BME280;45349;48.692;8.186;2023-09-07T05:29:28;150082.50;;;15.96;94.45
59531;BME280;45349;48.692;8.186;2023-09-07T05:31:55;150065.00;;;15.88;95.73
59531;BME280;45349;48.692;8.186;2023-09-07T05:34:23;150071.22;;;15.91;95.22
59531;BME280;45349;48.692;8.186;2023-09-07T05:36:49;150046.22;;;15.81;96.38
59531;BME280;45349;48.692;8.186;2023-09-07T05:39:16;150042.44;;;15.79;97.46
59531;BME280;45349;48.692;8.186;2023-09-07T05:41:44;150039.94;;;15.78;98.52
59531;BME280;45349;48.692;8.186;2023-09-07T05:44:11;150063.78;;;15.88;97.17
59531;BME280;45349;48.692;8.186;2023-09-07T05:46:38;150057.44;;;15.85;98.64
59531;BME280;45349;48.692;8.186;2023-09-07T05:49:05;150053.72;;;15.84;99.26
59531;BME280;45349;48.692;8.186;2023-09-07T05:51:32;150059.94;;;15.86;100.00
59531;BME280;45349;48.692;8.186;2023-09-07T05:54:02;150057.44;;;15.85;100.00
59531;BME280;45349;48.692;8.186;2023-09-07T05:56:29;150061.28;;;15.87;100.00
59531;BME280;45349;48.692;8.186;2023-09-07T05:59:00;150049.94;;;15.82;100.00
59531;BME280;45349;48.692;8.186;2023-09-07T06:01:26;150051.22;;;15.83;100.00
59531;BME280;45349;48.692;8.186;2023-09-07T06:03:53;150067.50;;;15.89;100.00
59531;BME280;45349;48.692;8.186;2023-09-07T06:06:20;150063.78;;;15.88;100.00
59531;BME280;45349;48.692;8.186;2023-09-07T06:08:47;150063.78;;;15.88;100.00
59531;BME280;45349;48.692;8.186;2023-09-07T06:11:13;150061.28;;;15.87;100.00
59531;BME280;45349;48.692;8.186;2023-09-07T06:13:40;150051.22;;;15.83;100.00
59531;BME280;45349;48.692;8.186;2023-09-07T06:16:08;150049.94;;;15.82;100.00
59531;BME280;45349;48.692;8.186;2023-09-07T06:18:35;150031.22;;;15.74;100.00
59531;BME280;45349;48.692;8.186;2023-09-07T06:21:02;150023.72;;;15.71;100.00
59531;BME280;45349;48.692;8.186;2023-09-07T06:23:29;150001.25;;;15.62;100.00
59531;BME280;45349;48.692;8.186;2023-09-07T06:25:57;149993.75;;;15.59;100.00
59531;BME280;45349;48.692;8.186;2023-09-07T06:28:23;149987.47;;;15.56;100.00
59531;BME280;45349;48.692;8.186;2023-09-07T06:30:50;149976.25;;;15.52;100.00
59531;BME280;45349;48.692;8.186;2023-09-07T06:33:19;149972.47;;;15.50;100.00
59531;BME280;45349;48.692;8.186;2023-09-07T06:35:47;149967.47;;;15.48;100.00
59531;BME280;45349;48.692;8.186;2023-09-07T06:38:14;149979.97;;;15.53;100.00
59531;BME280;45349;48.692;8.186;2023-09-07T06:40:47;149957.47;;;15.44;100.00
59531;BME280;45349;48.692;8.186;2023-09-07T06:43:14;149962.47;;;15.46;100.00
59531;BME280;45349;48.692;8.186;2023-09-07T06:45:41;149974.97;;;15.51;100.00
59531;BME280;45349;48.692;8.186;2023-09-07T06:48:08;149982.47;;;15.54;100.00
59531;BME280;45349;48.692;8.186;2023-09-07T06:50:36;149998.75;;;15.61;100.00
59531;BME280;45349;48.692;8.186;2023-09-07T06:53:03;150019.97;;;15.70;100.00
59531;BME280;45349;48.692;8.186;2023-09-07T06:55:30;150049.94;;;15.82;100.00
59531;BME280;45349;48.692;8.186;2023-09-07T06:57:57;150081.22;;;15.95;100.00
59531;BME280;45349;48.692;8.186;2023-09-07T07:00:25;150102.50;;;16.04;100.00
59531;BME280;45349;48.692;8.186;2023-09-07T07:02:52;150126.22;;;16.14;100.00
59531;BME280;45349;48.692;8.186;2023-09-07T07:05:19;150158.72;;;16.27;100.00
59531;BME280;45349;48.692;8.186;2023-09-07T07:07:49;150173.72;;;16.33;100.00
59531;BME280;45349;48.692;8.186;2023-09-07T07:10:16;150199.94;;;16.44;100.00
59531;BME280;45349;48.692;8.186;2023-09-07T07:12:42;150219.94;;;16.52;100.00
59531;BME280;45349;48.692;8.186;2023-09-07T07:15:09;150238.72;;;16.60;100.00
59531;BME280;45349;48.692;8.186;2023-09-07T07:17:37;150269.97;;;16.73;100.00
59531;BME280;45349;48.692;8.186;2023-09-07T07:20:05;150298.75;;;16.85;100.00
59531;BME280;45349;48.692;8.186;2023-09-07T07:22:32;150335.03;;;17.00;100.00
59531;BME280;45349;48.692;8.186;2023-09-07T07:25:02;150367.56;;;17.14;99.71
59531;BME280;45349;48.692;8.186;2023-09-07T07:27:31;150406.31;;;17.30;99.59
59531;BME280;45349;48.692;8.186;2023-09-07T07:29:58;150437.59;;;17.43;99.55
59531;BME280;45349;48.692;8.186;2023-09-07T07:32:24;150478.84;;;17.60;97.81
59531;BME280;45349;48.692;8.186;2023-09-07T07:34:51;150518.88;;;17.76;96.53
59531;BME280;45349;48.692;8.186;2023-09-07T07:37:18;150547.66;;;17.88;89.75
59531;BME280;45349;48.692;8.186;2023-09-07T07:39:44;150568.94;;;17.97;90.76
59531;BME280;45349;48.692;8.186;2023-09-07T07:42:14;150596.47;;;18.08;89.56
59531;BME280;45349;48.692;8.186;2023-09-07T07:44:41;150624.00;;;18.20;87.02
59531;BME280;45349;48.692;8.186;2023-09-07T07:47:08;150626.50;;;18.21;88.34
59531;BME280;45349;48.692;8.186;2023-09-07T07:49:35;150639.00;;;18.26;90.92
59531;BME280;45349;48.692;8.186;2023-09-07T07:52:03;150666.56;;;18.37;88.09
59531;BME280;45349;48.692;8.186;2023-09-07T07:54:29;150696.59;;;18.50;88.39
59531;BME280;45349;48.692;8.186;2023-09-07T07:56:59;150734.13;;;18.65;89.54
59531;BME280;45349;48.692;8.186;2023-09-07T07:59:27;150752.91;;;18.73;86.03
59531;BME280;45349;48.692;8.186;2023-09-07T08:01:54;150781.72;;;18.85;85.37
59531;BME280;45349;48.692;8.186;2023-09-07T08:04:21;150787.94;;;18.87;86.21
59531;BME280;45349;48.692;8.186;2023-09-07T08:06:48;150820.53;;;19.01;85.24
59531;BME280;45349;48.692;8.186;2023-09-07T08:09:14;150839.31;;;19.09;83.84
59531;BME280;45349;48.692;8.186;2023-09-07T08:11:41;150868.13;;;19.21;79.09
59531;BME280;45349;48.692;8.186;2023-09-07T08:14:09;150865.63;;;19.20;82.28
59531;BME280;45349;48.692;8.186;2023-09-07T08:16:37;150893.16;;;19.31;81.63
59531;BME280;45349;48.692;8.186;2023-09-07T08:19:07;150911.94;;;19.39;81.38
59531;BME280;45349;48.692;8.186;2023-09-07T08:21:33;150938.25;;;19.50;80.65
59531;BME280;45349;48.692;8.186;2023-09-07T08:24:05;150948.28;;;19.54;81.15
59531;BME280;45349;48.692;8.186;2023-09-07T08:26:32;150984.56;;;19.69;77.88
59531;BME280;45349;48.692;8.186;2023-09-07T08:29:02;151025.88;;;19.86;78.57
59531;BME280;45349;48.692;8.186;2023-09-07T08:31:31;151027.16;;;19.86;77.39
59531;BME280;45349;48.692;8.186;2023-09-07T08:34:06;151058.50;;;19.99;77.25
59531;BME280;45349;48.692;8.186;2023-09-07T08:36:34;151074.81;;;20.06;77.43
59531;BME280;45349;48.692;8.186;2023-09-07T08:39:06;151104.84;;;20.18;75.84
59531;BME280;45349;48.692;8.186;2023-09-07T08:41:37;151121.16;;;20.25;76.76
59531;BME280;45349;48.692;8.186;2023-09-07T08:44:07;151141.19;;;20.33;76.91
59531;BME280;45349;48.692;8.186;2023-09-07T08:46:35;151146.19;;;20.35;75.76
59531;BME280;45349;48.692;8.186;2023-09-07T08:49:07;151147.44;;;20.36;76.36
59531;BME280;45349;48.692;8.186;2023-09-07T08:51:34;151152.44;;;20.38;77.53
59531;BME280;45349;48.692;8.186;2023-09-07T08:54:07;151180.00;;;20.49;77.70
59531;BME280;45349;48.692;8.186;2023-09-07T08:56:34;151176.28;;;20.48;78.98
59531;BME280;45349;48.692;8.186;2023-09-07T08:59:05;151186.31;;;20.52;77.42
59531;BME280;45349;48.692;8.186;2023-09-07T09:01:32;151210.09;;;20.62;76.75
59531;BME280;45349;48.692;8.186;2023-09-07T09:03:58;151223.84;;;20.68;76.10
59531;BME280;45349;48.692;8.186;2023-09-07T09:06:26;151181.28;;;20.50;76.18
59531;BME280;45349;48.692;8.186;2023-09-07T09:08:55;151226.34;;;20.69;76.79
59531;BME280;45349;48.692;8.186;2023-09-07T09:11:23;151261.50;;;20.83;76.10
59531;BME280;45349;48.692;8.186;2023-09-07T09:13:52;151265.28;;;20.85;75.23
59531;BME280;45349;48.692;8.186;2023-09-07T09:16:20;151275.31;;;20.89;75.18
59531;BME280;45349;48.692;8.186;2023-09-07T09:18:50;151300.38;;;20.99;75.48
59531;BME280;45349;48.692;8.186;2023-09-07T09:21:17;151321.66;;;21.08;74.00
59531;BME280;45349;48.692;8.186;2023-09-07T09:23:48;151339.22;;;21.15;72.06
59531;BME280;45349;48.692;8.186;2023-09-07T09:26:15;151346.72;;;21.18;72.20
59531;BME280;45349;48.692;8.186;2023-09-07T09:28:43;151370.53;;;21.28;73.78
59531;BME280;45349;48.692;8.186;2023-09-07T09:31:10;151399.38;;;21.40;74.16
59531;BME280;45349;48.692;8.186;2023-09-07T09:33:38;151431.97;;;21.53;73.14
59531;BME280;45349;48.692;8.186;2023-09-07T09:36:05;151443.25;;;21.58;72.95
59531;BME280;45349;48.692;8.186;2023-09-07T09:38:32;151452.03;;;21.62;73.82
59531;BME280;45349;48.692;8.186;2023-09-07T09:41:01;151472.16;;;21.70;73.24
59531;BME280;45349;48.692;8.186;2023-09-07T09:43:29;151479.63;;;21.73;72.81
59531;BME280;45349;48.692;8.186;2023-09-07T09:45:56;151494.69;;;21.79;72.11
59531;BME280;45349;48.692;8.186;2023-09-07T09:48:23;151500.97;;;21.82;71.57
59531;BME280;45349;48.692;8.186;2023-09-07T09:50:50;151523.53;;;21.91;70.23
59531;BME280;45349;48.692;8.186;2023-09-07T09:53:17;151533.56;;;21.95;70.50
59531;BME280;45349;48.692;8.186;2023-09-07T09:55:46;151556.16;;;22.05;68.98
59531;BME280;45349;48.692;8.186;2023-09-07T09:58:14;151562.41;;;22.07;70.34
59531;BME280;45349;48.692;8.186;2023-09-07T10:00:42;151598.78;;;22.22;66.82
59531;BME280;45349;48.692;8.186;2023-09-07T10:03:12;151578.72;;;22.14;66.80
59531;BME280;45349;48.692;8.186;2023-09-07T10:05:40;151573.72;;;22.12;65.55
59531;BME280;45349;48.692;8.186;2023-09-07T10:08:09;151601.31;;;22.23;66.22
59531;BME280;45349;48.692;8.186;2023-09-07T10:10:40;151621.31;;;22.32;64.12
59531;BME280;45349;48.692;8.186;2023-09-07T10:13:07;151632.63;;;22.36;65.15
59531;BME280;45349;48.692;8.186;2023-09-07T10:15:36;151628.84;;;22.35;66.37
59531;BME280;45349;48.692;8.186;2023-09-07T10:18:09;151646.41;;;22.42;65.63
59531;BME280;45349;48.692;8.186;2023-09-07T10:20:53;151666.53;;;22.50;65.05
59531;BME280;45349;48.692;8.186;2023-09-07T10:23:21;151705.44;;;22.66;66.51
59531;BME280;45349;48.692;8.186;2023-09-07T10:25:50;151729.25;;;22.76;64.83
59531;BME280;45349;48.692;8.186;2023-09-07T10:28:21;151715.47;;;22.70;65.46
59531;BME280;45349;48.692;8.186;2023-09-07T10:31:03;151753.06;;;22.86;66.47
59531;BME280;45349;48.692;8.186;2023-09-07T10:33:31;151771.91;;;22.94;66.90
59531;BME280;45349;48.692;8.186;2023-09-07T10:35:58;151800.75;;;23.06;65.45
59531;BME280;45349;48.692;8.186;2023-09-07T10:38:25;151815.81;;;23.12;66.64
59531;BME280;45349;48.692;8.186;2023-09-07T10:40:55;151802.03;;;23.06;64.58
59531;BME280;45349;48.692;8.186;2023-09-07T10:43:24;151812.06;;;23.10;64.04
59531;BME280;45349;48.692;8.186;2023-09-07T10:45:50;151810.78;;;23.10;65.41
59531;BME280;45349;48.692;8.186;2023-09-07T10:48:18;151818.31;;;23.13;65.58
59531;BME280;45349;48.692;8.186;2023-09-07T10:50:45;151833.38;;;23.19;65.77
59531;BME280;45349;48.692;8.186;2023-09-07T10:53:13;151869.78;;;23.34;66.09
59531;BME280;45349;48.692;8.186;2023-09-07T10:55:41;151872.31;;;23.35;66.33
59531;BME280;45349;48.692;8.186;2023-09-07T10:58:09;151903.69;;;23.48;66.35
59531;BME280;45349;48.692;8.186;2023-09-07T11:00:36;151920.00;;;23.55;64.10
59531;BME280;45349;48.692;8.186;2023-09-07T11:03:09;151950.13;;;23.67;63.21
59531;BME280;45349;48.692;8.186;2023-09-07T11:05:39;151963.97;;;23.73;63.15
59531;BME280;45349;48.692;8.186;2023-09-07T11:08:06;151985.28;;;23.82;62.24
59531;BME280;45349;48.692;8.186;2023-09-07T11:10:34;151986.56;;;23.82;61.41
59531;BME280;45349;48.692;8.186;2023-09-07T11:13:04;151994.03;;;23.85;62.77
59531;BME280;45349;48.692;8.186;2023-09-07T11:15:32;152001.56;;;23.88;62.22
59531;BME280;45349;48.692;8.186;2023-09-07T11:18:03;152019.13;;;23.96;61.57
59531;BME280;45349;48.692;8.186;2023-09-07T11:20:30;152016.63;;;23.95;62.96
59531;BME280;45349;48.692;8.186;2023-09-07T11:22:58;152010.38;;;23.92;63.15
59531;BME280;45349;48.692;8.186;2023-09-07T11:25:25;152063.16;;;24.14;63.31
59531;BME280;45349;48.692;8.186;2023-09-07T11:27:52;152063.16;;;24.14;64.31
59531;BME280;45349;48.692;8.186;2023-09-07T11:30:20;152041.78;;;24.05;63.62
59531;BME280;45349;48.692;8.186;2023-09-07T11:32:47;152059.38;;;24.12;63.18
59531;BME280;45349;48.692;8.186;2023-09-07T11:35:14;152074.44;;;24.18;63.48
59531;BME280;45349;48.692;8.186;2023-09-07T11:37:41;152094.53;;;24.27;64.01
59531;BME280;45349;48.692;8.186;2023-09-07T11:40:10;152120.91;;;24.38;64.30
59531;BME280;45349;48.692;8.186;2023-09-07T11:42:38;152164.84;;;24.56;64.27
59531;BME280;45349;48.692;8.186;2023-09-07T11:45:06;152225.16;;;24.81;64.09
59531;BME280;45349;48.692;8.186;2023-09-07T11:47:34;152251.53;;;24.91;63.54
59531;BME280;45349;48.692;8.186;2023-09-07T11:50:02;152281.66;;;25.04;61.55
59531;BME280;45349;48.692;8.186;2023-09-07T11:52:29;152231.44;;;24.83;62.17
59531;BME280;45349;48.692;8.186;2023-09-07T11:54:56;152266.59;;;24.98;62.34
59531;BME280;45349;48.692;8.186;2023-09-07T11:57:24;152294.22;;;25.09;62.22
59531;BME280;45349;48.692;8.186;2023-09-07T11:59:50;152274.13;;;25.01;61.42
59531;BME280;45349;48.692;8.186;2023-09-07T12:02:17;152276.66;;;25.02;61.38
59531;BME280;45349;48.692;8.186;2023-09-07T12:04:46;152328.13;;;25.23;61.95
59531;BME280;45349;48.692;8.186;2023-09-07T12:07:13;152383.44;;;25.46;62.40
59531;BME280;45349;48.692;8.186;2023-09-07T12:09:39;152357.03;;;25.35;59.51
59531;BME280;45349;48.692;8.186;2023-09-07T12:12:06;152333.16;;;25.25;59.35
59531;BME280;45349;48.692;8.186;2023-09-07T12:14:34;152364.56;;;25.38;59.91
59531;BME280;45349;48.692;8.186;2023-09-07T12:17:01;152419.84;;;25.61;59.76
59531;BME280;45349;48.692;8.186;2023-09-07T12:19:28;152417.34;;;25.60;59.74
59531;BME280;45349;48.692;8.186;2023-09-07T12:21:55;152457.56;;;25.76;59.69
59531;BME280;45349;48.692;8.186;2023-09-07T12:24:21;152478.94;;;25.85;58.75
59531;BME280;45349;48.692;8.186;2023-09-07T12:26:48;152468.88;;;25.81;59.56
59531;BME280;45349;48.692;8.186;2023-09-07T12:29:15;152476.44;;;25.84;60.10
59531;BME280;45349;48.692;8.186;2023-09-07T12:31:43;152502.78;;;25.95;59.81
59531;BME280;45349;48.692;8.186;2023-09-07T12:34:10;152527.94;;;26.05;59.99
59531;BME280;45349;48.692;8.186;2023-09-07T12:36:37;152571.94;;;26.23;58.24
59531;BME280;45349;48.692;8.186;2023-09-07T12:39:05;152579.47;;;26.27;58.86
59531;BME280;45349;48.692;8.186;2023-09-07T12:41:32;152628.53;;;26.47;58.48
59531;BME280;45349;48.692;8.186;2023-09-07T12:43:59;152644.84;;;26.53;57.60
59531;BME280;45349;48.692;8.186;2023-09-07T12:46:26;152653.63;;;26.57;58.37
59531;BME280;45349;48.692;8.186;2023-09-07T12:48:54;152687.59;;;26.71;56.92
59531;BME280;45349;48.692;8.186;2023-09-07T12:51:20;152690.09;;;26.72;58.38